createdAt,value
2022-10-08T00:01:10.393Z,24.03
2022-10-08T00:03:43.560Z,25.43
2022-10-08T00:06:26.658Z,24.00
2022-10-08T00:08:56.246Z,24.10
2022-10-08T00:11:29.376Z,23.70
2022-10-08T00:13:57.063Z,22.73
2022-10-08T00:16:33.283Z,24.80
2022-10-08T00:19:06.610Z,23.17
2022-10-08T00:21:37.590Z,23.37
2022-10-08T00:24:06.246Z,25.43
2022-10-08T00:26:38.578Z,27.17
2022-10-08T00:29:08.305Z,23.40
2022-10-08T00:31:37.927Z,21.67
2022-10-08T00:34:08.954Z,25.47
2022-10-08T00:36:37.413Z,24.33
2022-10-08T00:39:11.582Z,25.07
2022-10-08T00:41:39.033Z,25.13
2022-10-08T00:44:43.174Z,25.33
2022-10-08T00:47:35.210Z,23.63
2022-10-08T00:50:20.028Z,24.37
2022-10-08T00:53:01.350Z,23.27
2022-10-08T00:55:29.274Z,23.03
2022-10-08T00:58:02.051Z,24.07
2022-10-08T01:00:30.154Z,22.67
2022-10-08T01:02:57.422Z,23.20
2022-10-08T01:05:56.646Z,23.13
2022-10-08T01:08:32.040Z,22.90
2022-10-08T01:11:19.567Z,26.70
2022-10-08T01:13:53.806Z,20.40
2022-10-08T01:16:51.338Z,20.80
2022-10-08T01:19:37.233Z,20.53
2022-10-08T01:22:42.466Z,21.13
2022-10-08T01:25:35.575Z,22.30
2022-10-08T01:28:05.284Z,20.80
2022-10-08T01:30:35.544Z,19.27
2022-10-08T01:33:17.826Z,22.60
2022-10-08T01:35:51.547Z,19.60
2022-10-08T01:38:21.948Z,23.13
2022-10-08T01:40:52.889Z,23.63
2022-10-08T01:43:23.750Z,21.43
2022-10-08T01:45:57.183Z,21.63
2022-10-08T01:48:29.816Z,20.37
2022-10-08T01:51:05.062Z,19.63
2022-10-08T01:53:36.886Z,22.70
2022-10-08T01:56:06.532Z,19.47
2022-10-08T01:58:57.101Z,21.77
2022-10-08T02:01:49.906Z,20.60
2022-10-08T02:04:33.788Z,17.80
2022-10-08T02:07:14.684Z,19.67
2022-10-08T02:09:45.559Z,18.33
2022-10-08T02:12:14.360Z,23.73
2022-10-08T02:14:54.057Z,17.03
2022-10-08T02:17:42.624Z,17.20
2022-10-08T02:20:20.929Z,16.67
2022-10-08T02:22:47.929Z,17.40
2022-10-08T02:25:30.711Z,17.93
2022-10-08T02:28:21.744Z,16.97
2022-10-08T02:31:15.756Z,20.13
2022-10-08T02:33:55.294Z,16.70
2022-10-08T02:36:34.332Z,20.50
2022-10-08T02:39:06.265Z,18.87
2022-10-08T02:41:37.671Z,15.40
2022-10-08T02:44:13.711Z,17.57
2022-10-08T02:46:42.525Z,15.37
2022-10-08T02:49:26.294Z,17.60
2022-10-08T02:51:55.010Z,15.40
2022-10-08T02:54:24.071Z,18.00
2022-10-08T02:57:29.190Z,16.53
2022-10-08T02:59:56.182Z,18.23
2022-10-08T03:02:29.881Z,15.40
2022-10-08T03:05:06.655Z,16.73
2022-10-08T03:07:35.207Z,15.43
2022-10-08T03:10:06.958Z,15.30
2022-10-08T03:12:34.670Z,14.83
2022-10-08T03:15:02.156Z,15.90
2022-10-08T03:17:33.475Z,14.50
2022-10-08T03:20:05.932Z,16.10
2022-10-08T03:22:33.796Z,16.30
2022-10-08T03:25:00.562Z,16.97
2022-10-08T03:27:27.615Z,15.57
2022-10-08T03:29:57.239Z,13.80
2022-10-08T03:32:27.581Z,15.53
2022-10-08T03:34:54.429Z,14.10
2022-10-08T03:37:21.182Z,14.37
2022-10-08T03:39:47.884Z,14.53
2022-10-08T03:42:14.631Z,14.53
2022-10-08T03:44:41.344Z,14.43
2022-10-08T03:47:08.144Z,15.57
2022-10-08T03:49:34.932Z,15.70
2022-10-08T03:52:01.691Z,24.03
2022-10-08T03:54:28.632Z,18.57
2022-10-08T03:56:55.373Z,15.00
2022-10-08T03:59:22.191Z,17.00
2022-10-08T04:01:48.957Z,13.70
2022-10-08T04:04:15.752Z,15.30
2022-10-08T04:06:42.470Z,14.60
2022-10-08T04:09:10.664Z,13.43
2022-10-08T04:11:37.575Z,15.27
2022-10-08T04:14:04.371Z,13.57
2022-10-08T04:16:31.113Z,12.13
2022-10-08T04:18:57.853Z,14.00
2022-10-08T04:21:24.980Z,15.30
2022-10-08T04:23:51.876Z,14.87
2022-10-08T04:26:19.029Z,17.60
2022-10-08T04:28:47.199Z,14.60
2022-10-08T04:31:19.657Z,14.83
2022-10-08T04:33:47.707Z,14.10
2022-10-08T04:36:16.783Z,12.47
2022-10-08T04:38:44.182Z,17.17
2022-10-08T04:41:16.812Z,14.00
2022-10-08T04:43:44.974Z,14.27
2022-10-08T04:46:14.704Z,16.23
2022-10-08T04:48:53.770Z,14.23
2022-10-08T04:51:23.346Z,12.97
2022-10-08T04:53:51.341Z,12.23
2022-10-08T04:56:26.559Z,13.57
2022-10-08T04:58:57.318Z,14.10
2022-10-08T05:01:25.734Z,13.60
2022-10-08T05:03:54.579Z,19.07
2022-10-08T05:06:24.732Z,15.10
2022-10-08T05:08:51.805Z,13.30
2022-10-08T05:11:19.012Z,14.77
2022-10-08T05:13:56.046Z,15.47
2022-10-08T05:16:23.998Z,15.77
2022-10-08T05:18:52.025Z,13.90
2022-10-08T05:21:22.531Z,12.57
2022-10-08T05:23:54.197Z,14.10
2022-10-08T05:26:46.210Z,14.20
2022-10-08T05:29:11.469Z,12.57
2022-10-08T05:31:38.800Z,14.97
2022-10-08T05:34:05.774Z,12.10
2022-10-08T05:36:33.975Z,11.83
2022-10-08T05:39:02.647Z,13.17
2022-10-08T05:41:32.041Z,16.17
2022-10-08T05:43:59.114Z,15.30
2022-10-08T05:46:27.903Z,13.77
2022-10-08T05:48:56.267Z,15.50
2022-10-08T05:51:23.979Z,11.87
2022-10-08T05:53:52.167Z,14.97
2022-10-08T05:56:21.701Z,14.33
2022-10-08T05:58:50.080Z,14.10
2022-10-08T06:01:22.758Z,13.83
2022-10-08T06:03:55.028Z,12.20
2022-10-08T06:06:22.966Z,13.23
2022-10-08T06:08:58.234Z,11.83
2022-10-08T06:11:26.001Z,12.90
2022-10-08T06:13:57.913Z,11.50
2022-10-08T06:16:25.503Z,13.47
2022-10-08T06:18:52.253Z,13.53
2022-10-08T06:21:21.855Z,12.90
2022-10-08T06:23:56.981Z,19.30
2022-10-08T06:26:27.925Z,20.53
2022-10-08T06:28:57.079Z,14.83
2022-10-08T06:31:24.276Z,13.60
2022-10-08T06:33:51.128Z,11.73
2022-10-08T06:36:20.120Z,12.80
2022-10-08T06:38:54.399Z,12.33
2022-10-08T06:41:21.856Z,11.87
2022-10-08T06:43:49.288Z,12.47
2022-10-08T06:46:16.811Z,21.23
2022-10-08T06:48:43.732Z,11.03
2022-10-08T06:51:12.569Z,12.70
2022-10-08T06:53:40.385Z,12.67
2022-10-08T06:56:10.845Z,11.13
2022-10-08T06:58:38.055Z,10.43
2022-10-08T07:01:07.458Z,11.43
2022-10-08T07:03:35.035Z,13.03
2022-10-08T07:06:11.092Z,11.27
2022-10-08T07:08:38.835Z,11.60
2022-10-08T07:11:07.175Z,20.73
2022-10-08T07:13:34.977Z,11.50
2022-10-08T07:16:19.573Z,12.10
2022-10-08T07:18:48.563Z,11.77
2022-10-08T07:21:17.155Z,12.97
2022-10-08T07:23:44.066Z,10.80
2022-10-08T07:26:16.304Z,11.50
2022-10-08T07:28:51.874Z,13.40
2022-10-08T07:31:21.442Z,13.67
2022-10-08T07:33:48.223Z,12.33
2022-10-08T07:36:20.731Z,11.80
2022-10-08T07:38:50.672Z,11.27
2022-10-08T07:41:17.393Z,12.77
2022-10-08T07:43:44.096Z,16.67
2022-10-08T07:46:12.233Z,13.30
2022-10-08T07:48:39.702Z,13.90
2022-10-08T07:51:12.341Z,13.97
2022-10-08T07:53:40.014Z,14.23
2022-10-08T07:56:08.311Z,13.17
2022-10-08T07:58:35.848Z,13.20
2022-10-08T08:01:04.680Z,12.60
2022-10-08T08:03:31.551Z,16.90
2022-10-08T08:06:07.363Z,15.63
2022-10-08T08:08:35.352Z,14.40
2022-10-08T08:11:04.326Z,14.93
2022-10-08T08:13:36.814Z,13.10
2022-10-08T08:16:10.359Z,12.60
2022-10-08T08:18:40.446Z,13.00
2022-10-08T08:21:08.740Z,15.97
2022-10-08T08:23:38.515Z,12.23
2022-10-08T08:26:26.896Z,22.97
2022-10-08T08:28:56.164Z,18.83
2022-10-08T08:31:35.893Z,14.27
2022-10-08T08:34:07.303Z,13.10
2022-10-08T08:36:42.474Z,16.70
2022-10-08T08:39:14.730Z,12.37
2022-10-08T08:42:05.750Z,11.90
2022-10-08T08:44:44.258Z,17.90
2022-10-08T08:47:29.839Z,15.90
2022-10-08T08:50:02.301Z,13.13
2022-10-08T08:52:34.058Z,12.53
2022-10-08T08:55:01.668Z,11.73
2022-10-08T08:57:40.630Z,13.80
2022-10-08T09:00:19.755Z,15.10
2022-10-08T09:03:18.758Z,13.33
2022-10-08T09:05:48.355Z,14.37
2022-10-08T09:08:33.576Z,18.90
2022-10-08T09:11:02.898Z,12.90
2022-10-08T09:13:45.796Z,12.93
2022-10-08T09:16:13.780Z,16.57
2022-10-08T09:18:47.429Z,13.57
2022-10-08T09:21:14.244Z,15.83
2022-10-08T09:23:41.263Z,17.60
2022-10-08T09:26:07.962Z,13.87
2022-10-08T09:28:47.974Z,13.67
2022-10-08T09:31:30.131Z,13.80
2022-10-08T09:34:18.545Z,13.83
2022-10-08T09:36:53.926Z,15.20
2022-10-08T09:39:34.827Z,14.50
2022-10-08T09:42:07.488Z,12.83
2022-10-08T09:44:59.056Z,12.13
2022-10-08T09:47:27.180Z,14.47
2022-10-08T09:50:19.296Z,12.63
2022-10-08T09:52:49.911Z,12.77
2022-10-08T09:55:18.496Z,13.00
2022-10-08T09:57:50.026Z,15.17
2022-10-08T10:00:38.007Z,14.70
2022-10-08T10:03:07.183Z,15.50
2022-10-08T10:05:36.044Z,15.90
2022-10-08T10:08:03.826Z,12.27
2022-10-08T10:10:33.418Z,14.13
2022-10-08T10:13:09.130Z,13.43
2022-10-08T10:15:43.358Z,15.30
2022-10-08T10:18:18.477Z,19.20
2022-10-08T10:20:58.534Z,19.17
2022-10-08T10:23:36.654Z,14.73
2022-10-08T10:26:16.562Z,17.13
2022-10-08T10:28:46.162Z,13.43
2022-10-08T10:31:40.061Z,16.33
2022-10-08T10:34:20.844Z,14.77
2022-10-08T10:37:24.897Z,13.80
2022-10-08T10:40:15.993Z,12.43
2022-10-08T10:43:18.001Z,12.53
2022-10-08T10:45:52.255Z,11.60
2022-10-08T10:48:19.099Z,13.03
2022-10-08T10:50:58.020Z,12.10
2022-10-08T10:53:30.623Z,11.77
2022-10-08T10:56:18.430Z,11.87
2022-10-08T10:58:45.103Z,16.40
2022-10-08T11:01:27.352Z,10.13
2022-10-08T11:04:15.692Z,15.70
2022-10-08T11:07:07.056Z,11.50
2022-10-08T11:09:58.800Z,18.90
2022-10-08T11:12:56.047Z,11.53
2022-10-08T11:15:46.441Z,12.33
2022-10-08T11:18:37.272Z,10.83
2022-10-08T11:21:32.954Z,12.90
2022-10-08T11:24:09.891Z,12.50
2022-10-08T11:26:57.599Z,12.70
2022-10-08T11:29:34.263Z,12.53
2022-10-08T11:32:01.888Z,13.83
2022-10-08T11:34:37.094Z,15.27
2022-10-08T11:37:34.905Z,13.47
2022-10-08T11:40:15.278Z,15.40
2022-10-08T11:42:49.171Z,14.30
2022-10-08T11:45:40.189Z,21.53
2022-10-08T11:48:34.669Z,16.83
2022-10-08T11:51:19.544Z,15.00
2022-10-08T11:54:17.877Z,13.73
2022-10-08T11:56:49.588Z,14.43
2022-10-08T11:59:26.549Z,15.00
2022-10-08T12:02:05.571Z,16.60
2022-10-08T12:04:37.579Z,16.80
2022-10-08T12:07:24.992Z,13.67
2022-10-08T12:10:06.981Z,13.27
2022-10-08T12:12:49.533Z,12.80
2022-10-08T12:15:25.303Z,13.83
2022-10-08T12:18:13.403Z,14.53
2022-10-08T12:20:42.391Z,17.37
2022-10-08T12:23:21.517Z,13.87
2022-10-08T12:26:00.366Z,16.10
2022-10-08T12:28:30.168Z,16.67
2022-10-08T12:31:02.671Z,22.83
2022-10-08T12:33:30.746Z,20.50
2022-10-08T12:36:12.575Z,18.50
2022-10-08T12:38:53.245Z,17.27
2022-10-08T12:41:25.950Z,14.87
2022-10-08T12:44:23.470Z,18.30
2022-10-08T12:47:14.198Z,15.70
2022-10-08T12:49:46.931Z,14.53
2022-10-08T12:52:18.519Z,14.67
2022-10-08T12:54:57.404Z,14.53
2022-10-08T12:57:34.421Z,16.13
2022-10-08T13:00:10.093Z,17.00
2022-10-08T13:02:43.176Z,16.83
2022-10-08T13:05:35.678Z,13.23
2022-10-08T13:08:29.303Z,14.20
2022-10-08T13:10:57.632Z,18.00
2022-10-08T13:13:39.777Z,15.30
2022-10-08T13:16:28.889Z,16.67
2022-10-08T13:18:58.735Z,18.30
2022-10-08T13:21:31.422Z,13.63
2022-10-08T13:24:18.380Z,13.50
2022-10-08T13:26:53.520Z,13.47
2022-10-08T13:29:27.528Z,14.53
2022-10-08T13:32:03.716Z,13.77
2022-10-08T13:34:41.346Z,12.77
2022-10-08T13:37:22.937Z,12.90
2022-10-08T13:40:01.888Z,15.50
2022-10-08T13:42:39.242Z,15.73
2022-10-08T13:45:15.139Z,16.27
2022-10-08T13:47:41.873Z,12.00
2022-10-08T13:50:08.925Z,10.87
2022-10-08T13:52:36.209Z,17.60
2022-10-08T13:55:06.393Z,11.47
2022-10-08T13:57:33.202Z,15.80
2022-10-08T14:00:00.150Z,12.23
2022-10-08T14:02:26.976Z,11.10
2022-10-08T14:04:53.758Z,10.27
2022-10-08T14:07:31.128Z,8.80
2022-10-08T14:10:01.442Z,9.23
2022-10-08T14:12:32.633Z,12.60
2022-10-08T14:15:00.488Z,8.37
2022-10-08T14:17:27.207Z,8.67
2022-10-08T14:19:56.860Z,10.60
2022-10-08T14:22:23.773Z,12.63
2022-10-08T14:24:50.820Z,47.10
2022-10-08T14:27:17.712Z,20.73
2022-10-08T14:29:44.565Z,12.97
2022-10-08T14:32:12.029Z,10.30
2022-10-08T14:34:39.331Z,11.23
2022-10-08T14:37:06.834Z,12.03
2022-10-08T14:39:33.845Z,10.93
2022-10-08T14:42:00.605Z,10.83
2022-10-08T14:44:27.337Z,10.10
2022-10-08T14:46:54.126Z,8.53
2022-10-08T14:49:22.122Z,8.80
2022-10-08T14:51:48.908Z,12.43
2022-10-08T14:54:17.892Z,9.10
2022-10-08T14:56:44.658Z,8.70
2022-10-08T14:59:12.616Z,8.73
2022-10-08T15:01:39.523Z,8.23
2022-10-08T15:04:07.245Z,9.33
2022-10-08T15:06:34.202Z,8.10
2022-10-08T15:09:00.926Z,5.77
2022-10-08T15:11:27.606Z,6.27
2022-10-08T15:13:54.473Z,7.20
2022-10-08T15:16:21.593Z,8.57
2022-10-08T15:18:48.625Z,5.17
2022-10-08T15:21:15.318Z,4.90
2022-10-08T15:23:42.049Z,4.63
2022-10-08T15:26:12.635Z,9.00
2022-10-08T15:28:39.888Z,3.67
2022-10-08T15:31:17.933Z,6.20
2022-10-08T15:33:46.988Z,3.90
2022-10-08T15:36:26.237Z,4.93
2022-10-08T15:39:00.471Z,6.30
2022-10-08T15:41:29.172Z,6.77
2022-10-08T15:43:56.547Z,5.30
2022-10-08T15:46:26.111Z,5.87
2022-10-08T15:48:55.238Z,7.17
2022-10-08T15:51:23.851Z,5.40
2022-10-08T15:53:50.987Z,9.63
2022-10-08T15:56:17.871Z,4.30
2022-10-08T15:58:52.037Z,3.83
2022-10-08T16:01:22.492Z,8.50
2022-10-08T16:03:51.869Z,5.67
2022-10-08T16:06:22.208Z,19.73
2022-10-08T16:08:49.370Z,4.53
2022-10-08T16:11:28.220Z,3.90
2022-10-08T16:14:03.607Z,18.33
2022-10-08T16:16:30.651Z,4.33
2022-10-08T16:19:03.221Z,8.43
2022-10-08T16:21:32.582Z,4.60
2022-10-08T16:24:00.752Z,9.13
2022-10-08T16:26:28.979Z,4.77
2022-10-08T16:28:58.959Z,4.20
2022-10-08T16:31:27.937Z,6.13
2022-10-08T16:33:59.645Z,4.80
2022-10-08T16:36:27.963Z,10.10
2022-10-08T16:38:55.318Z,6.03
2022-10-08T16:41:25.011Z,8.77
2022-10-08T16:43:53.493Z,6.30
2022-10-08T16:46:40.160Z,7.53
2022-10-08T16:49:21.275Z,6.20
2022-10-08T16:51:50.296Z,5.67
2022-10-08T16:54:18.529Z,6.23
2022-10-08T16:56:46.056Z,5.57
2022-10-08T16:59:19.412Z,11.10
2022-10-08T17:01:49.238Z,7.30
2022-10-08T17:04:17.177Z,8.63
2022-10-08T17:06:44.387Z,6.83
2022-10-08T17:09:11.718Z,8.27
2022-10-08T17:11:38.994Z,9.47
2022-10-08T17:14:07.719Z,10.60
2022-10-08T17:16:35.515Z,8.30
2022-10-08T17:19:03.549Z,15.50
2022-10-08T17:21:31.475Z,9.50
2022-10-08T17:23:59.345Z,17.80
2022-10-08T17:26:27.806Z,12.63
2022-10-08T17:28:55.310Z,12.57
2022-10-08T17:31:24.600Z,12.83
2022-10-08T17:33:51.885Z,16.23
2022-10-08T17:36:21.408Z,14.43
2022-10-08T17:38:50.891Z,10.40
2022-10-08T17:41:19.827Z,22.33
2022-10-08T17:43:47.603Z,13.17
2022-10-08T17:46:16.709Z,13.33
2022-10-08T17:48:44.264Z,9.90
2022-10-08T17:51:14.092Z,11.40
2022-10-08T17:53:41.554Z,17.47
2022-10-08T17:56:10.654Z,11.37
2022-10-08T17:58:37.784Z,13.77
2022-10-08T18:01:19.407Z,13.93
2022-10-08T18:04:16.902Z,15.80
2022-10-08T18:06:46.415Z,8.97
2022-10-08T18:09:19.127Z,13.80
2022-10-08T18:11:48.969Z,14.13
2022-10-08T18:14:17.324Z,18.60
2022-10-08T18:16:47.877Z,16.53
2022-10-08T18:19:15.984Z,21.83
2022-10-08T18:21:42.727Z,24.40
2022-10-08T18:24:09.608Z,19.90
2022-10-08T18:26:37.109Z,15.93
2022-10-08T18:29:09.280Z,16.10
2022-10-08T18:31:37.337Z,13.73
2022-10-08T18:34:07.040Z,14.53
2022-10-08T18:36:35.874Z,18.20
2022-10-08T18:39:05.943Z,16.47
2022-10-08T18:41:40.619Z,14.67
2022-10-08T18:44:11.898Z,15.20
2022-10-08T18:46:39.392Z,13.90
2022-10-08T18:49:06.752Z,14.53
2022-10-08T18:51:34.460Z,12.40
2022-10-08T18:54:02.272Z,23.40
2022-10-08T18:56:35.574Z,18.33
2022-10-08T18:59:05.204Z,14.50
2022-10-08T19:01:38.142Z,14.40
2022-10-08T19:04:07.523Z,19.20
2022-10-08T19:06:37.273Z,27.53
2022-10-08T19:09:05.502Z,19.57
2022-10-08T19:11:44.418Z,17.37
2022-10-08T19:14:14.117Z,18.83
2022-10-08T19:16:41.739Z,21.03
2022-10-08T19:19:16.932Z,17.97
2022-10-08T19:21:44.063Z,20.63
2022-10-08T19:24:15.056Z,16.50
2022-10-08T19:26:42.079Z,17.27
2022-10-08T19:29:15.301Z,18.63
2022-10-08T19:31:42.166Z,16.37
2022-10-08T19:34:12.789Z,13.10
2022-10-08T19:36:39.500Z,15.47
2022-10-08T19:39:10.659Z,14.53
2022-10-08T19:41:38.148Z,14.97
2022-10-08T19:44:05.379Z,16.97
2022-10-08T19:46:32.432Z,14.47
2022-10-08T19:49:01.953Z,20.77
2022-10-08T19:51:30.968Z,11.83
2022-10-08T19:53:58.850Z,15.10
2022-10-08T19:56:25.634Z,13.60
2022-10-08T19:58:53.349Z,14.10
2022-10-08T20:01:23.355Z,14.30
2022-10-08T20:03:54.874Z,15.30
2022-10-08T20:06:24.946Z,20.30
2022-10-08T20:08:57.172Z,13.63
2022-10-08T20:11:24.633Z,12.03
2022-10-08T20:13:52.988Z,13.80
2022-10-08T20:16:26.249Z,16.07
2022-10-08T20:18:55.836Z,14.80
2022-10-08T20:21:22.970Z,16.97
2022-10-08T20:23:49.809Z,15.13
2022-10-08T20:26:20.539Z,12.43
2022-10-08T20:28:49.707Z,21.40
2022-10-08T20:31:20.995Z,15.03
2022-10-08T20:33:54.351Z,16.10
2022-10-08T20:36:21.051Z,13.93
2022-10-08T20:38:47.822Z,14.43
2022-10-08T20:41:14.559Z,11.33
2022-10-08T20:43:41.270Z,14.00
2022-10-08T20:46:10.889Z,18.03
2022-10-08T20:48:39.510Z,15.33
2022-10-08T20:51:20.021Z,12.60
2022-10-08T20:53:48.937Z,18.70
2022-10-08T20:56:16.027Z,14.37
2022-10-08T20:58:43.851Z,20.57
2022-10-08T21:01:13.905Z,28.63
2022-10-08T21:03:44.911Z,26.67
2022-10-08T21:06:20.839Z,23.37
2022-10-08T21:08:49.222Z,17.30
2022-10-08T21:11:18.111Z,17.33
2022-10-08T21:13:45.501Z,16.80
2022-10-08T21:16:21.797Z,18.20
2022-10-08T21:18:53.674Z,16.73
2022-10-08T21:21:20.722Z,20.20
2022-10-08T21:23:49.052Z,17.77
2022-10-08T21:26:30.732Z,19.73
2022-10-08T21:29:02.610Z,16.20
2022-10-08T21:31:31.103Z,18.17
2022-10-08T21:33:59.327Z,16.40
2022-10-08T21:36:29.226Z,15.80
2022-10-08T21:38:56.150Z,12.90
2022-10-08T21:41:24.248Z,13.10
2022-10-08T21:43:53.203Z,11.60
2022-10-08T21:46:22.841Z,10.87
2022-10-08T21:49:04.646Z,13.57
2022-10-08T21:51:32.822Z,15.33
2022-10-08T21:54:02.203Z,13.27
2022-10-08T21:56:31.747Z,10.73
2022-10-08T21:59:00.094Z,16.10
2022-10-08T22:01:30.026Z,10.37
2022-10-08T22:03:58.964Z,10.73
2022-10-08T22:06:27.702Z,11.63
2022-10-08T22:08:54.487Z,10.67
2022-10-08T22:11:21.743Z,13.43
2022-10-08T22:13:48.931Z,13.50
2022-10-08T22:16:17.598Z,12.73
2022-10-08T22:18:44.721Z,13.83
2022-10-08T22:21:14.996Z,14.23
2022-10-08T22:23:42.028Z,12.93
2022-10-08T22:26:11.575Z,13.23
2022-10-08T22:28:39.133Z,17.43
2022-10-08T22:31:08.198Z,13.37
2022-10-08T22:33:35.592Z,12.63
2022-10-08T22:36:11.148Z,10.40
2022-10-08T22:38:39.223Z,16.23
2022-10-08T22:41:21.634Z,11.13
2022-10-08T22:43:49.151Z,15.23
2022-10-08T22:46:26.279Z,11.50
2022-10-08T22:48:57.663Z,11.03
2022-10-08T22:51:24.860Z,12.40
2022-10-08T22:53:51.869Z,9.93
2022-10-08T22:56:21.842Z,12.33
2022-10-08T22:58:49.210Z,12.57
2022-10-08T23:01:21.531Z,10.63
2022-10-08T23:03:48.679Z,9.57
2022-10-08T23:06:21.925Z,11.03
2022-10-08T23:08:54.296Z,14.00
2022-10-08T23:11:21.296Z,14.67
2022-10-08T23:13:52.850Z,10.60
2022-10-08T23:16:20.239Z,10.93
2022-10-08T23:18:52.675Z,14.40
2022-10-08T23:21:19.436Z,14.73
2022-10-08T23:23:47.514Z,20.47
2022-10-08T23:26:16.006Z,22.07
2022-10-08T23:28:43.941Z,27.67
2022-10-08T23:31:15.505Z,21.27
2022-10-08T23:33:44.473Z,18.57
2022-10-08T23:36:17.539Z,19.60
2022-10-08T23:38:44.619Z,22.20
2022-10-08T23:41:12.116Z,18.00
2022-10-08T23:43:43.990Z,25.27
2022-10-08T23:46:13.544Z,20.33
2022-10-08T23:48:41.380Z,14.83
2022-10-08T23:51:09.878Z,15.27
2022-10-08T23:53:37.358Z,17.40
2022-10-08T23:56:05.194Z,12.57
2022-10-08T23:58:32.165Z,13.90
